createdAt,value
2022-08-14T00:01:54.887Z,55.63
2022-08-14T00:04:36.158Z,55.60
2022-08-14T00:07:08.214Z,55.71
2022-08-14T00:09:55.204Z,55.70
2022-08-14T00:12:24.305Z,55.73
2022-08-14T00:14:53.129Z,55.75
2022-08-14T00:17:21.665Z,55.71
2022-08-14T00:19:48.361Z,55.56
2022-08-14T00:22:44.455Z,55.57
2022-08-14T00:25:05.537Z,55.54
2022-08-14T00:27:35.419Z,55.29
2022-08-14T00:30:07.678Z,55.56
2022-08-14T00:32:52.598Z,55.54
2022-08-14T00:35:22.876Z,55.32
2022-08-14T00:38:09.244Z,55.41
2022-08-14T00:40:36.249Z,55.49
2022-08-14T00:43:02.605Z,55.56
2022-08-14T00:45:30.556Z,55.46
2022-08-14T00:47:58.399Z,55.54
2022-08-14T00:50:28.330Z,55.76
2022-08-14T00:52:55.891Z,55.54
2022-08-14T00:55:23.402Z,55.84
2022-08-14T00:58:08.344Z,55.87
2022-08-14T01:00:43.082Z,55.71
2022-08-14T01:03:19.095Z,55.71
2022-08-14T01:05:51.969Z,55.92
2022-08-14T01:08:20.617Z,55.87
2022-08-14T01:11:05.877Z,55.85
2022-08-14T01:13:42.646Z,56.19
2022-08-14T01:16:10.655Z,56.14
2022-08-14T01:19:12.328Z,56.28
2022-08-14T01:21:47.180Z,56.17
2022-08-14T01:24:24.694Z,55.93
2022-08-14T01:26:57.910Z,55.80
2022-08-14T01:29:44.638Z,56.10
2022-08-14T01:32:13.714Z,56.33
2022-08-14T01:35:18.269Z,56.42
2022-08-14T01:37:28.795Z,56.17
2022-08-14T01:39:57.939Z,56.56
2022-08-14T01:42:31.081Z,56.90
2022-08-14T01:44:58.692Z,56.99
2022-08-14T01:47:25.373Z,57.17
2022-08-14T01:49:59.586Z,57.49
2022-08-14T01:52:34.135Z,57.89
2022-08-14T01:55:17.357Z,58.34
2022-08-14T01:57:49.502Z,57.96
2022-08-14T02:00:28.430Z,58.45
2022-08-14T02:02:58.180Z,58.66
2022-08-14T02:05:38.500Z,58.58
2022-08-14T02:08:09.632Z,58.64
2022-08-14T02:10:46.071Z,59.05
2022-08-14T02:13:13.522Z,58.64
2022-08-14T02:15:43.462Z,58.78
2022-08-14T02:18:10.281Z,59.10
2022-08-14T02:20:38.286Z,59.13
2022-08-14T02:23:06.468Z,59.24
2022-08-14T02:25:34.762Z,59.60
2022-08-14T02:28:22.590Z,59.42
2022-08-14T02:30:48.255Z,59.78
2022-08-14T02:33:18.878Z,59.65
2022-08-14T02:35:52.885Z,59.81
2022-08-14T02:38:30.628Z,59.78
2022-08-14T02:41:01.301Z,59.94
2022-08-14T02:43:36.452Z,60.14
2022-08-14T02:46:03.972Z,60.11
2022-08-14T02:49:02.063Z,60.33
2022-08-14T02:51:22.453Z,60.27
2022-08-14T02:53:49.727Z,60.42
2022-08-14T02:56:30.529Z,60.51
2022-08-14T02:59:06.657Z,60.55
2022-08-14T03:01:50.178Z,60.64
2022-08-14T03:04:20.167Z,60.65
2022-08-14T03:07:06.338Z,60.77
2022-08-14T03:09:41.849Z,61.16
2022-08-14T03:12:31.802Z,60.95
2022-08-14T03:14:59.490Z,60.90
2022-08-14T03:17:26.836Z,61.14
2022-08-14T03:19:58.501Z,61.36
2022-08-14T03:22:25.349Z,61.22
2022-08-14T03:24:54.226Z,61.50
2022-08-14T03:27:20.602Z,61.48
2022-08-14T03:29:52.818Z,61.62
2022-08-14T03:32:20.301Z,61.61
2022-08-14T03:34:58.482Z,61.73
2022-08-14T03:37:51.594Z,61.69
2022-08-14T03:40:17.589Z,62.09
2022-08-14T03:42:45.323Z,61.86
2022-08-14T03:45:18.905Z,62.15
2022-08-14T03:48:01.949Z,62.08
2022-08-14T03:50:31.586Z,61.91
2022-08-14T03:53:00.476Z,62.04
2022-08-14T03:55:28.376Z,62.19
2022-08-14T03:57:56.865Z,62.26
2022-08-14T04:00:40.588Z,62.36
2022-08-14T04:03:10.251Z,62.19
2022-08-14T04:05:42.924Z,62.45
2022-08-14T04:08:29.539Z,62.21
2022-08-14T04:10:58.091Z,62.49
2022-08-14T04:13:24.535Z,62.29
2022-08-14T04:16:01.266Z,62.23
2022-08-14T04:18:29.776Z,62.41
2022-08-14T04:20:58.023Z,62.12
2022-08-14T04:23:29.636Z,62.21
2022-08-14T04:26:00.305Z,62.51
2022-08-14T04:29:07.227Z,62.52
2022-08-14T04:31:13.262Z,62.52
2022-08-14T04:33:41.963Z,62.67
2022-08-14T04:36:09.284Z,62.54
2022-08-14T04:39:00.755Z,62.69
2022-08-14T04:41:53.198Z,62.80
2022-08-14T04:44:35.846Z,62.57
2022-08-14T04:47:21.454Z,62.83
2022-08-14T04:49:57.007Z,63.04
2022-08-14T04:52:24.680Z,62.67
2022-08-14T04:54:51.372Z,62.90
2022-08-14T04:57:17.723Z,63.06
2022-08-14T04:59:45.645Z,63.12
2022-08-14T05:02:13.556Z,62.96
2022-08-14T05:04:45.548Z,62.80
2022-08-14T05:07:46.454Z,63.12
2022-08-14T05:10:12.744Z,63.07
2022-08-14T05:13:24.527Z,63.20
2022-08-14T05:15:29.385Z,63.34
2022-08-14T05:18:16.939Z,63.39
2022-08-14T05:21:55.191Z,63.35
2022-08-14T05:23:34.561Z,63.71
2022-08-14T05:26:03.718Z,63.76
2022-08-14T05:28:30.910Z,63.68
2022-08-14T05:31:01.709Z,63.96
2022-08-14T05:33:30.330Z,64.22
2022-08-14T05:36:01.131Z,64.25
2022-08-14T05:38:31.046Z,64.44
2022-08-14T05:40:58.180Z,64.72
2022-08-14T05:43:24.543Z,64.75
2022-08-14T05:46:08.660Z,64.47
2022-08-14T05:48:43.193Z,64.62
2022-08-14T05:51:09.971Z,64.63
2022-08-14T05:53:36.502Z,64.66
2022-08-14T05:56:08.856Z,64.94
2022-08-14T05:58:40.946Z,64.85
2022-08-14T06:01:09.394Z,64.75
2022-08-14T06:03:36.693Z,64.70
2022-08-14T06:06:06.674Z,64.99
2022-08-14T06:08:41.455Z,64.98
2022-08-14T06:11:08.445Z,64.95
2022-08-14T06:13:44.957Z,65.02
2022-08-14T06:16:12.438Z,65.39
2022-08-14T06:18:39.713Z,65.23
2022-08-14T06:21:06.169Z,64.81
2022-08-14T06:23:39.890Z,65.00
2022-08-14T06:26:06.366Z,65.21
2022-08-14T06:28:33.005Z,65.20
2022-08-14T06:31:00.732Z,65.02
2022-08-14T06:35:01.086Z,64.33
2022-08-14T06:36:13.558Z,64.38
2022-08-14T06:38:44.794Z,64.15
2022-08-14T06:41:11.361Z,63.59
2022-08-14T06:43:45.517Z,63.65
2022-08-14T06:46:17.457Z,63.16
2022-08-14T06:48:59.021Z,63.27
2022-08-14T06:51:25.412Z,63.01
2022-08-14T06:54:05.421Z,62.67
2022-08-14T06:56:34.885Z,62.73
2022-08-14T06:59:01.550Z,62.51
2022-08-14T07:01:50.483Z,62.44
2022-08-14T07:04:41.607Z,62.11
2022-08-14T07:07:07.981Z,62.17
2022-08-14T07:09:44.349Z,62.12
2022-08-14T07:12:54.244Z,62.18
2022-08-14T07:15:04.789Z,62.24
2022-08-14T07:17:32.147Z,62.09
2022-08-14T07:20:02.797Z,62.08
2022-08-14T07:22:32.920Z,61.96
2022-08-14T07:25:15.505Z,61.91
2022-08-14T07:27:42.739Z,61.86
2022-08-14T07:30:09.673Z,61.81
2022-08-14T07:32:56.072Z,61.73
2022-08-14T07:35:22.441Z,61.81
2022-08-14T07:37:50.035Z,61.62
2022-08-14T07:40:22.129Z,61.62
2022-08-14T07:42:54.212Z,61.62
2022-08-14T07:45:20.565Z,61.25
2022-08-14T07:47:48.728Z,61.17
2022-08-14T07:50:16.409Z,61.29
2022-08-14T07:52:45.323Z,61.68
2022-08-14T07:55:13.081Z,61.15
2022-08-14T07:57:40.709Z,61.14
2022-08-14T08:00:11.571Z,61.03
2022-08-14T08:03:00.267Z,61.28
2022-08-14T08:05:27.261Z,61.08
2022-08-14T08:07:53.695Z,60.77
2022-08-14T08:11:01.322Z,60.71
2022-08-14T08:13:22.259Z,60.94
2022-08-14T08:15:51.307Z,60.80
2022-08-14T08:18:27.372Z,60.67
2022-08-14T08:20:55.476Z,60.52
2022-08-14T08:23:34.411Z,60.53
2022-08-14T08:26:07.301Z,60.52
2022-08-14T08:28:34.382Z,60.80
2022-08-14T08:31:01.530Z,60.60
2022-08-14T08:33:32.262Z,60.63
2022-08-14T08:36:03.449Z,60.48
2022-08-14T08:39:17.615Z,60.53
2022-08-14T08:41:16.201Z,60.47
2022-08-14T08:43:46.293Z,60.40
2022-08-14T08:46:21.621Z,60.40
2022-08-14T08:51:22.572Z,60.29
2022-08-14T08:54:04.289Z,60.03
2022-08-14T08:56:39.748Z,60.20
2022-08-14T08:59:19.131Z,59.98
2022-08-14T09:01:49.860Z,59.91
2022-08-14T09:04:19.238Z,60.06
2022-08-14T09:07:00.337Z,60.07
2022-08-14T09:09:33.876Z,59.97
2022-08-14T09:12:01.363Z,60.01
2022-08-14T09:14:29.489Z,59.78
2022-08-14T09:16:59.049Z,59.94
2022-08-14T09:19:26.121Z,59.93
2022-08-14T09:21:54.924Z,59.84
2022-08-14T09:24:29.193Z,59.71
2022-08-14T09:26:57.512Z,60.03
2022-08-14T09:29:24.265Z,59.67
2022-08-14T09:31:57.570Z,59.80
2022-08-14T09:34:34.574Z,59.93
2022-08-14T09:37:11.877Z,59.67
2022-08-14T09:39:42.881Z,59.86
2022-08-14T09:42:33.440Z,59.57
2022-08-14T09:45:10.652Z,59.74
2022-08-14T09:47:40.522Z,59.63
2022-08-14T09:50:18.730Z,59.55
2022-08-14T09:52:54.148Z,59.67
2022-08-14T09:55:21.802Z,59.50
2022-08-14T09:57:48.223Z,59.41
2022-08-14T10:00:30.513Z,59.53
2022-08-14T10:03:05.738Z,59.55
2022-08-14T10:05:33.655Z,59.58
2022-08-14T10:08:00.767Z,59.58
2022-08-14T10:10:38.109Z,59.45
2022-08-14T10:13:20.253Z,59.46
2022-08-14T10:15:46.630Z,59.51
2022-08-14T10:18:18.350Z,59.61
2022-08-14T10:20:52.308Z,59.23
2022-08-14T10:23:19.502Z,59.37
2022-08-14T10:25:50.548Z,59.44
2022-08-14T10:28:51.647Z,59.40
2022-08-14T10:31:15.535Z,59.50
2022-08-14T10:33:41.893Z,59.34
2022-08-14T10:36:08.324Z,59.49
2022-08-14T10:38:42.494Z,59.31
2022-08-14T10:41:17.098Z,59.05
2022-08-14T10:43:44.900Z,59.25
2022-08-14T10:47:36.337Z,59.22
2022-08-14T10:49:04.855Z,59.13
2022-08-14T10:51:34.044Z,59.40
2022-08-14T10:54:17.193Z,59.24
2022-08-14T10:56:55.763Z,59.29
2022-08-14T10:59:30.677Z,59.52
2022-08-14T11:01:59.913Z,59.41
2022-08-14T11:04:28.400Z,59.55
2022-08-14T11:06:57.271Z,59.70
2022-08-14T11:09:23.741Z,59.50
2022-08-14T11:11:56.558Z,59.78
2022-08-14T11:14:42.877Z,60.00
2022-08-14T11:17:09.332Z,59.74
2022-08-14T11:19:36.019Z,59.99
2022-08-14T11:22:03.053Z,59.81
2022-08-14T11:24:50.464Z,59.90
2022-08-14T11:27:19.125Z,59.95
2022-08-14T11:29:45.534Z,59.74
2022-08-14T11:32:20.115Z,59.98
2022-08-14T11:34:46.661Z,59.66
2022-08-14T11:37:22.942Z,60.05
2022-08-14T11:39:53.389Z,60.04
2022-08-14T11:42:56.884Z,60.14
2022-08-14T11:45:11.380Z,59.81
2022-08-14T11:48:12.575Z,60.02
2022-08-14T11:50:36.930Z,59.96
2022-08-14T11:53:04.472Z,60.01
2022-08-14T11:55:34.682Z,60.03
2022-08-14T11:58:03.251Z,60.07
2022-08-14T12:00:32.504Z,59.97
2022-08-14T12:03:06.685Z,60.12
2022-08-14T12:05:34.299Z,60.28
2022-08-14T12:08:06.683Z,60.34
2022-08-14T12:10:42.445Z,60.58
2022-08-14T12:13:12.289Z,60.25
2022-08-14T12:15:44.881Z,60.18
2022-08-14T12:18:11.924Z,61.46
2022-08-14T12:20:53.231Z,60.68
2022-08-14T12:23:25.910Z,60.13
2022-08-14T12:26:31.686Z,60.33
2022-08-14T12:29:00.493Z,60.50
2022-08-14T12:31:27.034Z,60.44
2022-08-14T12:34:02.193Z,60.31
2022-08-14T12:36:37.345Z,60.51
2022-08-14T12:39:05.263Z,60.30
2022-08-14T12:41:34.242Z,60.31
2022-08-14T12:44:04.707Z,60.25
2022-08-14T12:46:43.509Z,60.58
2022-08-14T12:49:16.108Z,60.61
2022-08-14T12:51:43.369Z,60.57
2022-08-14T12:54:27.286Z,60.73
2022-08-14T12:57:27.987Z,60.69
2022-08-14T12:59:59.280Z,60.74
2022-08-14T13:02:29.821Z,60.56
2022-08-14T13:04:57.895Z,60.90
2022-08-14T13:07:26.878Z,60.84
2022-08-14T13:09:59.336Z,60.87
2022-08-14T13:12:32.216Z,60.65
2022-08-14T13:15:01.514Z,60.94
2022-08-14T13:17:41.306Z,60.82
2022-08-14T13:20:10.210Z,60.80
2022-08-14T13:22:38.536Z,60.72
2022-08-14T13:25:09.360Z,60.83
2022-08-14T13:27:39.155Z,60.87
2022-08-14T13:30:10.268Z,61.01
2022-08-14T13:32:39.314Z,60.96
2022-08-14T13:35:12.158Z,61.19
2022-08-14T13:37:44.364Z,60.79
2022-08-14T13:40:12.203Z,60.89
2022-08-14T13:42:43.594Z,60.86
2022-08-14T13:45:11.222Z,61.00
2022-08-14T13:47:42.416Z,60.91
2022-08-14T13:50:12.720Z,60.92
2022-08-14T13:52:51.321Z,60.88
2022-08-14T13:55:28.576Z,61.06
2022-08-14T13:58:03.209Z,60.91
2022-08-14T14:00:35.328Z,61.04
2022-08-14T14:03:04.608Z,61.05
2022-08-14T14:05:52.162Z,61.07
2022-08-14T14:08:43.609Z,60.83
2022-08-14T14:11:08.172Z,61.14
2022-08-14T14:13:34.893Z,60.99
2022-08-14T14:16:02.764Z,60.88
2022-08-14T14:18:34.772Z,61.00
2022-08-14T14:21:01.842Z,60.98
2022-08-14T14:23:28.552Z,60.94
2022-08-14T14:25:57.096Z,61.07
2022-08-14T14:28:25.071Z,60.98
2022-08-14T14:30:53.281Z,61.03
2022-08-14T14:33:44.563Z,60.77
2022-08-14T14:36:06.942Z,60.85
2022-08-14T14:38:34.210Z,60.85
2022-08-14T14:41:01.469Z,60.94
2022-08-14T14:43:28.005Z,60.83
2022-08-14T14:45:54.433Z,60.57
2022-08-14T14:48:20.816Z,60.81
2022-08-14T14:50:51.874Z,60.79
2022-08-14T14:53:18.673Z,60.78
2022-08-14T14:56:48.072Z,60.70
2022-08-14T14:58:31.646Z,60.58
2022-08-14T15:00:59.788Z,60.82
2022-08-14T15:03:26.254Z,60.57
2022-08-14T15:05:54.055Z,60.63
2022-08-14T15:08:26.691Z,60.60
2022-08-14T15:11:13.551Z,60.63
2022-08-14T15:13:43.190Z,60.77
2022-08-14T15:16:09.813Z,60.57
2022-08-14T15:18:40.125Z,60.52
2022-08-14T15:21:13.166Z,60.55
2022-08-14T15:23:44.241Z,60.38
2022-08-14T15:26:13.465Z,60.49
2022-08-14T15:29:03.344Z,60.54
2022-08-14T15:31:31.929Z,60.33
2022-08-14T15:34:44.468Z,60.41
2022-08-14T15:37:00.444Z,60.46
2022-08-14T15:39:29.299Z,60.36
2022-08-14T15:41:57.275Z,60.47
2022-08-14T15:44:26.477Z,60.46
2022-08-14T15:46:54.139Z,60.32
2022-08-14T15:49:21.510Z,60.42
2022-08-14T15:51:47.870Z,60.27
2022-08-14T15:54:17.383Z,60.39
2022-08-14T15:56:55.443Z,60.31
2022-08-14T15:59:25.096Z,60.19
2022-08-14T16:01:55.108Z,60.09
2022-08-14T16:04:22.815Z,60.02
2022-08-14T16:06:54.842Z,60.03
2022-08-14T16:09:22.572Z,60.13
2022-08-14T16:11:53.443Z,60.27
2022-08-14T16:14:21.446Z,60.14
2022-08-14T16:16:51.654Z,60.05
2022-08-14T16:19:26.594Z,59.92
2022-08-14T16:22:01.845Z,60.13
2022-08-14T16:25:02.569Z,60.22
2022-08-14T16:30:24.529Z,60.01
2022-08-14T16:32:55.391Z,59.91
2022-08-14T16:35:25.004Z,60.08
2022-08-14T16:37:52.876Z,59.98
2022-08-14T16:40:22.124Z,59.92
2022-08-14T16:43:04.032Z,59.71
2022-08-14T16:45:39.122Z,60.08
2022-08-14T16:48:55.580Z,59.91
2022-08-14T16:51:00.756Z,60.00
2022-08-14T16:53:27.336Z,59.84
2022-08-14T16:56:17.322Z,59.99
2022-08-14T16:58:51.615Z,59.76
2022-08-14T17:01:22.942Z,59.96
2022-08-14T17:03:52.530Z,59.71
2022-08-14T17:06:37.789Z,59.87
2022-08-14T17:09:04.839Z,59.84
2022-08-14T17:11:31.554Z,59.57
2022-08-14T17:14:01.441Z,59.72
2022-08-14T17:16:35.758Z,59.84
2022-08-14T17:19:05.310Z,59.90
2022-08-14T17:21:35.292Z,59.67
2022-08-14T17:24:56.742Z,59.63
2022-08-14T17:26:55.571Z,59.68
2022-08-14T17:29:29.500Z,59.62
2022-08-14T17:32:02.083Z,59.74
2022-08-14T17:34:47.623Z,59.70
2022-08-14T17:37:24.459Z,59.79
2022-08-14T17:40:00.499Z,59.56
2022-08-14T17:42:45.682Z,59.52
2022-08-14T17:45:19.198Z,59.74
2022-08-14T17:47:53.509Z,59.42
2022-08-14T17:51:00.121Z,59.48
2022-08-14T17:53:26.147Z,59.66
2022-08-14T17:56:01.591Z,59.42
2022-08-14T17:58:30.022Z,59.56
2022-08-14T18:01:05.198Z,59.53
2022-08-14T18:03:50.919Z,59.53
2022-08-14T18:06:39.044Z,59.73
2022-08-14T18:09:25.301Z,59.64
2022-08-14T18:11:55.538Z,59.36
2022-08-14T18:14:32.309Z,59.51
2022-08-14T18:17:10.622Z,59.61
2022-08-14T18:19:37.983Z,59.39
2022-08-14T18:22:31.479Z,59.52
2022-08-14T18:24:55.502Z,59.58
2022-08-14T18:27:23.005Z,59.35
2022-08-14T18:29:55.575Z,59.42
2022-08-14T18:32:31.534Z,59.58
2022-08-14T18:34:58.228Z,59.39
2022-08-14T18:37:24.931Z,59.57
2022-08-14T18:40:01.209Z,59.37
2022-08-14T18:42:30.423Z,59.43
2022-08-14T18:44:58.665Z,59.35
2022-08-14T18:47:28.801Z,59.40
2022-08-14T18:50:00.556Z,59.52
2022-08-14T18:52:29.619Z,59.48
2022-08-14T18:54:59.514Z,59.50
2022-08-14T18:57:26.620Z,59.41
2022-08-14T18:59:53.595Z,59.44
2022-08-14T19:02:30.487Z,59.51
2022-08-14T19:04:58.101Z,59.58
2022-08-14T19:07:25.391Z,59.42
2022-08-14T19:09:57.790Z,59.66
2022-08-14T19:12:48.757Z,59.58
2022-08-14T19:15:18.135Z,59.96
2022-08-14T19:18:14.107Z,60.11
2022-08-14T19:20:52.781Z,60.27
2022-08-14T19:23:21.398Z,60.18
2022-08-14T19:26:33.768Z,59.94
2022-08-14T19:28:53.071Z,59.75
2022-08-14T19:31:22.434Z,59.64
2022-08-14T19:33:50.961Z,59.64
2022-08-14T19:36:29.192Z,59.35
2022-08-14T19:38:59.199Z,59.20
2022-08-14T19:41:29.242Z,59.20
2022-08-14T19:44:32.004Z,59.09
2022-08-14T19:47:01.745Z,58.99
2022-08-14T19:50:24.963Z,58.92
2022-08-14T19:52:26.343Z,59.32
2022-08-14T19:54:56.363Z,59.10
2022-08-14T19:57:23.827Z,58.96
2022-08-14T19:59:57.734Z,59.17
2022-08-14T20:02:30.096Z,59.26
2022-08-14T20:04:59.618Z,59.16
2022-08-14T20:08:00.449Z,59.00
2022-08-14T20:11:12.244Z,59.06
2022-08-14T20:13:11.663Z,59.47
2022-08-14T20:15:46.954Z,59.35
2022-08-14T20:18:45.880Z,59.26
2022-08-14T20:21:05.181Z,59.13
2022-08-14T20:23:38.220Z,59.12
2022-08-14T20:26:05.190Z,59.08
2022-08-14T20:28:36.953Z,59.28
2022-08-14T20:31:18.660Z,59.51
2022-08-14T20:34:03.855Z,59.75
2022-08-14T20:36:32.443Z,59.89
2022-08-14T20:38:59.057Z,59.84
2022-08-14T20:41:25.634Z,60.01
2022-08-14T20:44:11.846Z,59.91
2022-08-14T20:46:39.555Z,60.05
2022-08-14T20:49:16.415Z,59.94
2022-08-14T20:51:58.426Z,60.08
2022-08-14T20:54:34.361Z,60.02
2022-08-14T20:57:06.334Z,59.94
2022-08-14T20:59:33.014Z,60.22
2022-08-14T21:02:00.242Z,60.35
2022-08-14T21:04:35.895Z,60.82
2022-08-14T21:07:25.305Z,61.28
2022-08-14T21:10:06.208Z,61.22
2022-08-14T21:13:24.686Z,61.43
2022-08-14T21:15:36.553Z,61.26
2022-08-14T21:18:07.283Z,61.22
2022-08-14T21:20:36.837Z,61.04
2022-08-14T21:23:06.144Z,61.27
2022-08-14T21:25:33.873Z,61.02
2022-08-14T21:28:04.790Z,60.87
2022-08-14T21:30:51.648Z,60.82
2022-08-14T21:33:20.512Z,60.99
2022-08-14T21:35:48.315Z,60.89
2022-08-14T21:38:21.458Z,60.61
2022-08-14T21:41:00.270Z,60.44
2022-08-14T21:43:26.929Z,60.35
2022-08-14T21:45:58.167Z,60.50
2022-08-14T21:48:29.251Z,60.39
2022-08-14T21:51:01.746Z,60.22
2022-08-14T21:53:58.080Z,60.33
2022-08-14T21:56:38.348Z,60.23
2022-08-14T21:59:06.752Z,60.30
2022-08-14T22:02:00.430Z,60.43
2022-08-14T22:04:33.297Z,60.14
2022-08-14T22:07:08.761Z,60.03
2022-08-14T22:09:36.725Z,60.14
2022-08-14T22:12:06.804Z,60.08
2022-08-14T22:14:33.772Z,59.83
2022-08-14T22:17:13.186Z,60.20
2022-08-14T22:19:54.164Z,60.12
2022-08-14T22:22:21.520Z,59.95
2022-08-14T22:24:54.117Z,59.73
2022-08-14T22:27:27.276Z,59.86
2022-08-14T22:29:58.633Z,59.80
2022-08-14T22:32:35.249Z,59.93
2022-08-14T22:35:11.443Z,59.65
2022-08-14T22:37:39.539Z,59.67
2022-08-14T22:40:17.143Z,59.89
2022-08-14T22:43:00.401Z,59.84
2022-08-14T22:45:36.579Z,59.51
2022-08-14T22:48:05.105Z,59.47
2022-08-14T22:50:38.425Z,59.50
2022-08-14T22:53:19.765Z,59.36
2022-08-14T22:55:46.145Z,59.38
2022-08-14T22:58:17.254Z,59.34
2022-08-14T23:00:44.550Z,59.29
2022-08-14T23:03:17.258Z,59.36
2022-08-14T23:05:52.585Z,59.38
2022-08-14T23:08:59.554Z,59.39
2022-08-14T23:11:05.987Z,59.32
2022-08-14T23:13:32.974Z,59.30
2022-08-14T23:15:59.722Z,59.25
2022-08-14T23:18:29.869Z,59.21
2022-08-14T23:20:56.563Z,59.50
2022-08-14T23:23:23.364Z,59.31
2022-08-14T23:25:58.205Z,59.17
2022-08-14T23:28:33.865Z,59.19
2022-08-14T23:31:34.583Z,59.21
2022-08-14T23:34:01.953Z,59.25
2022-08-14T23:36:37.890Z,59.08
2022-08-14T23:39:19.663Z,59.09
2022-08-14T23:41:52.592Z,59.37
2022-08-14T23:44:20.455Z,59.16
2022-08-14T23:46:49.197Z,59.17
2022-08-14T23:49:15.776Z,59.32
2022-08-14T23:51:42.120Z,58.93
2022-08-14T23:54:48.740Z,59.07
2022-08-14T23:57:02.519Z,59.13
2022-08-14T23:59:30.225Z,59.20
